sensor_id;sensor_type;location;lat;lon;timestamp;temperature;humidity
41592;DHT22;28026;48.562;14.440;2024-03-25T00:01:58;1.80;99.90
41592;DHT22;28026;48.562;14.440;2024-03-25T00:04:29;1.80;99.90
41592;DHT22;28026;48.562;14.440;2024-03-25T00:07:00;1.70;99.90
41592;DHT22;28026;48.562;14.440;2024-03-25T00:09:30;1.70;99.90
41592;DHT22;28026;48.562;14.440;2024-03-25T00:12:01;1.70;99.90
41592;DHT22;28026;48.562;14.440;2024-03-25T00:14:34;1.60;99.90
41592;DHT22;28026;48.562;14.440;2024-03-25T00:17:06;1.60;99.90
41592;DHT22;28026;48.562;14.440;2024-03-25T00:19:38;1.60;99.90
41592;DHT22;28026;48.562;14.440;2024-03-25T00:22:08;1.60;99.90
41592;DHT22;28026;48.562;14.440;2024-03-25T00:24:39;1.70;99.90
41592;DHT22;28026;48.562;14.440;2024-03-25T00:27:10;1.70;99.90
41592;DHT22;28026;48.562;14.440;2024-03-25T00:29:41;1.60;99.90
41592;DHT22;28026;48.562;14.440;2024-03-25T00:32:12;1.60;99.90
41592;DHT22;28026;48.562;14.440;2024-03-25T00:34:43;1.60;99.90
41592;DHT22;28026;48.562;14.440;2024-03-25T00:37:14;1.60;99.90
41592;DHT22;28026;48.562;14.440;2024-03-25T00:39:45;1.50;99.90
41592;DHT22;28026;48.562;14.440;2024-03-25T00:42:15;1.50;99.90
41592;DHT22;28026;48.562;14.440;2024-03-25T00:44:46;1.50;99.90
41592;DHT22;28026;48.562;14.440;2024-03-25T00:47:17;1.60;99.90
41592;DHT22;28026;48.562;14.440;2024-03-25T00:49:48;1.50;99.90
41592;DHT22;28026;48.562;14.440;2024-03-25T00:52:19;1.60;99.90
41592;DHT22;28026;48.562;14.440;2024-03-25T00:54:50;1.60;99.90
41592;DHT22;28026;48.562;14.440;2024-03-25T00:57:21;1.60;99.90
41592;DHT22;28026;48.562;14.440;2024-03-25T00:59:52;1.60;99.90
41592;DHT22;28026;48.562;14.440;2024-03-25T01:02:23;1.70;99.90
41592;DHT22;28026;48.562;14.440;2024-03-25T01:04:54;1.60;99.90
41592;DHT22;28026;48.562;14.440;2024-03-25T01:07:29;1.70;99.90
41592;DHT22;28026;48.562;14.440;2024-03-25T01:10:01;1.70;99.90
41592;DHT22;28026;48.562;14.440;2024-03-25T01:12:32;1.70;99.90
41592;DHT22;28026;48.562;14.440;2024-03-25T01:15:03;1.80;99.90
41592;DHT22;28026;48.562;14.440;2024-03-25T01:17:36;1.80;99.90
41592;DHT22;28026;48.562;14.440;2024-03-25T01:20:07;1.80;99.90
41592;DHT22;28026;48.562;14.440;2024-03-25T01:22:39;1.90;99.90
41592;DHT22;28026;48.562;14.440;2024-03-25T01:25:10;1.90;99.90
41592;DHT22;28026;48.562;14.440;2024-03-25T01:27:42;1.90;99.90
41592;DHT22;28026;48.562;14.440;2024-03-25T01:30:12;1.90;99.90
41592;DHT22;28026;48.562;14.440;2024-03-25T01:32:44;2.00;99.90
41592;DHT22;28026;48.562;14.440;2024-03-25T01:35:18;1.90;99.90
41592;DHT22;28026;48.562;14.440;2024-03-25T01:37:49;2.00;99.90
41592;DHT22;28026;48.562;14.440;2024-03-25T01:40:20;2.00;99.90
41592;DHT22;28026;48.562;14.440;2024-03-25T01:43:01;2.00;99.90
41592;DHT22;28026;48.562;14.440;2024-03-25T01:45:33;2.00;99.90
41592;DHT22;28026;48.562;14.440;2024-03-25T01:48:06;2.00;99.90
41592;DHT22;28026;48.562;14.440;2024-03-25T01:50:41;2.00;99.90
41592;DHT22;28026;48.562;14.440;2024-03-25T01:53:15;2.00;99.90
41592;DHT22;28026;48.562;14.440;2024-03-25T01:55:46;2.00;99.90
41592;DHT22;28026;48.562;14.440;2024-03-25T01:58:19;2.00;99.90
41592;DHT22;28026;48.562;14.440;2024-03-25T02:00:50;2.10;99.90
41592;DHT22;28026;48.562;14.440;2024-03-25T02:03:23;2.00;99.90
41592;DHT22;28026;48.562;14.440;2024-03-25T02:05:58;2.00;99.90
41592;DHT22;28026;48.562;14.440;2024-03-25T02:08:34;2.00;99.90
41592;DHT22;28026;48.562;14.440;2024-03-25T02:11:07;2.00;99.90
41592;DHT22;28026;48.562;14.440;2024-03-25T02:13:39;2.00;99.90
41592;DHT22;28026;48.562;14.440;2024-03-25T02:16:10;2.00;99.90
41592;DHT22;28026;48.562;14.440;2024-03-25T02:18:41;2.10;99.90
41592;DHT22;28026;48.562;14.440;2024-03-25T02:21:12;2.10;99.90
41592;DHT22;28026;48.562;14.440;2024-03-25T02:23:44;2.10;99.90
41592;DHT22;28026;48.562;14.440;2024-03-25T02:26:18;2.10;99.90
41592;DHT22;28026;48.562;14.440;2024-03-25T02:28:49;2.10;99.90
41592;DHT22;28026;48.562;14.440;2024-03-25T02:31:20;2.10;99.90
41592;DHT22;28026;48.562;14.440;2024-03-25T02:33:51;2.10;99.90
41592;DHT22;28026;48.562;14.440;2024-03-25T02:36:22;2.10;99.90
41592;DHT22;28026;48.562;14.440;2024-03-25T02:38:53;2.20;99.90
41592;DHT22;28026;48.562;14.440;2024-03-25T02:41:24;2.20;99.90
41592;DHT22;28026;48.562;14.440;2024-03-25T02:43:55;2.10;99.90
41592;DHT22;28026;48.562;14.440;2024-03-25T02:46:26;2.10;99.90
41592;DHT22;28026;48.562;14.440;2024-03-25T02:48:57;2.20;99.90
41592;DHT22;28026;48.562;14.440;2024-03-25T02:51:28;2.10;99.90
41592;DHT22;28026;48.562;14.440;2024-03-25T02:53:59;2.20;99.90
41592;DHT22;28026;48.562;14.440;2024-03-25T02:56:30;2.20;99.90
41592;DHT22;28026;48.562;14.440;2024-03-25T02:59:01;2.20;99.90
41592;DHT22;28026;48.562;14.440;2024-03-25T03:01:32;2.20;99.90
41592;DHT22;28026;48.562;14.440;2024-03-25T03:04:03;2.20;99.90
41592;DHT22;28026;48.562;14.440;2024-03-25T03:06:34;2.10;99.90
41592;DHT22;28026;48.562;14.440;2024-03-25T03:09:05;2.20;99.90
41592;DHT22;28026;48.562;14.440;2024-03-25T03:11:36;2.20;99.90
41592;DHT22;28026;48.562;14.440;2024-03-25T03:14:07;2.20;99.90
41592;DHT22;28026;48.562;14.440;2024-03-25T03:16:38;2.20;99.90
41592;DHT22;28026;48.562;14.440;2024-03-25T03:19:09;2.20;99.90
41592;DHT22;28026;48.562;14.440;2024-03-25T03:21:40;2.20;99.90
41592;DHT22;28026;48.562;14.440;2024-03-25T03:24:11;2.30;99.90
41592;DHT22;28026;48.562;14.440;2024-03-25T03:26:41;2.30;99.90
41592;DHT22;28026;48.562;14.440;2024-03-25T03:29:12;2.20;99.90
41592;DHT22;28026;48.562;14.440;2024-03-25T03:31:43;2.20;99.90
41592;DHT22;28026;48.562;14.440;2024-03-25T03:34:14;2.20;99.90
41592;DHT22;28026;48.562;14.440;2024-03-25T03:36:45;2.20;99.90
41592;DHT22;28026;48.562;14.440;2024-03-25T03:39:16;2.30;99.90
41592;DHT22;28026;48.562;14.440;2024-03-25T03:41:47;2.30;99.90
41592;DHT22;28026;48.562;14.440;2024-03-25T03:44:18;2.30;99.90
41592;DHT22;28026;48.562;14.440;2024-03-25T03:46:49;2.30;99.90
41592;DHT22;28026;48.562;14.440;2024-03-25T03:49:20;2.20;99.90
41592;DHT22;28026;48.562;14.440;2024-03-25T03:51:51;2.20;99.90
41592;DHT22;28026;48.562;14.440;2024-03-25T03:54:22;2.20;99.90
41592;DHT22;28026;48.562;14.440;2024-03-25T03:56:53;2.30;99.90
41592;DHT22;28026;48.562;14.440;2024-03-25T03:59:23;2.30;99.90
41592;DHT22;28026;48.562;14.440;2024-03-25T04:01:54;2.20;99.90
41592;DHT22;28026;48.562;14.440;2024-03-25T04:04:25;2.20;99.90
41592;DHT22;28026;48.562;14.440;2024-03-25T04:06:56;2.20;99.90
41592;DHT22;28026;48.562;14.440;2024-03-25T04:09:27;2.20;99.90
41592;DHT22;28026;48.562;14.440;2024-03-25T04:11:59;2.30;99.90
41592;DHT22;28026;48.562;14.440;2024-03-25T04:14:31;2.30;99.90
41592;DHT22;28026;48.562;14.440;2024-03-25T04:17:03;2.30;99.90
41592;DHT22;28026;48.562;14.440;2024-03-25T04:19:35;2.20;99.90
41592;DHT22;28026;48.562;14.440;2024-03-25T04:22:05;2.20;99.90
41592;DHT22;28026;48.562;14.440;2024-03-25T04:24:37;2.30;99.90
41592;DHT22;28026;48.562;14.440;2024-03-25T04:27:08;2.30;99.90
41592;DHT22;28026;48.562;14.440;2024-03-25T04:29:39;2.30;99.90
41592;DHT22;28026;48.562;14.440;2024-03-25T04:32:09;2.30;99.90
41592;DHT22;28026;48.562;14.440;2024-03-25T04:34:40;2.30;99.90
41592;DHT22;28026;48.562;14.440;2024-03-25T04:37:11;2.30;99.90
41592;DHT22;28026;48.562;14.440;2024-03-25T04:39:43;2.30;99.90
41592;DHT22;28026;48.562;14.440;2024-03-25T04:42:14;2.20;99.90
41592;DHT22;28026;48.562;14.440;2024-03-25T04:44:44;2.20;99.90
41592;DHT22;28026;48.562;14.440;2024-03-25T04:47:16;2.20;99.90
41592;DHT22;28026;48.562;14.440;2024-03-25T04:49:48;2.20;99.90
41592;DHT22;28026;48.562;14.440;2024-03-25T04:52:19;2.30;99.90
41592;DHT22;28026;48.562;14.440;2024-03-25T04:54:53;2.20;99.90
41592;DHT22;28026;48.562;14.440;2024-03-25T04:57:24;2.30;99.90
41592;DHT22;28026;48.562;14.440;2024-03-25T04:59:55;2.30;99.90
41592;DHT22;28026;48.562;14.440;2024-03-25T05:02:26;2.30;99.90
41592;DHT22;28026;48.562;14.440;2024-03-25T05:04:57;2.20;99.90
41592;DHT22;28026;48.562;14.440;2024-03-25T05:07:28;2.40;99.90
41592;DHT22;28026;48.562;14.440;2024-03-25T05:09:59;2.30;99.90
41592;DHT22;28026;48.562;14.440;2024-03-25T05:12:30;2.20;99.90
41592;DHT22;28026;48.562;14.440;2024-03-25T05:15:01;2.20;99.90
41592;DHT22;28026;48.562;14.440;2024-03-25T05:17:32;2.30;99.90
41592;DHT22;28026;48.562;14.440;2024-03-25T05:20:03;2.30;99.90
41592;DHT22;28026;48.562;14.440;2024-03-25T05:22:35;2.30;99.90
41592;DHT22;28026;48.562;14.440;2024-03-25T05:25:06;2.30;99.90
41592;DHT22;28026;48.562;14.440;2024-03-25T05:27:37;2.30;99.90
41592;DHT22;28026;48.562;14.440;2024-03-25T05:30:08;2.30;99.90
41592;DHT22;28026;48.562;14.440;2024-03-25T05:32:40;2.30;99.90
41592;DHT22;28026;48.562;14.440;2024-03-25T05:35:13;2.30;99.90
41592;DHT22;28026;48.562;14.440;2024-03-25T05:37:43;2.20;99.90
41592;DHT22;28026;48.562;14.440;2024-03-25T05:40:14;2.20;99.90
41592;DHT22;28026;48.562;14.440;2024-03-25T05:42:45;2.20;99.90
41592;DHT22;28026;48.562;14.440;2024-03-25T05:45:16;2.10;99.90
41592;DHT22;28026;48.562;14.440;2024-03-25T05:47:47;2.10;99.90
41592;DHT22;28026;48.562;14.440;2024-03-25T05:50:21;2.00;99.90
41592;DHT22;28026;48.562;14.440;2024-03-25T05:52:51;2.10;99.90
41592;DHT22;28026;48.562;14.440;2024-03-25T05:55:22;2.10;99.90
41592;DHT22;28026;48.562;14.440;2024-03-25T05:57:53;2.10;99.90
41592;DHT22;28026;48.562;14.440;2024-03-25T06:00:24;2.10;99.90
41592;DHT22;28026;48.562;14.440;2024-03-25T06:02:56;2.00;99.90
41592;DHT22;28026;48.562;14.440;2024-03-25T06:05:27;2.10;99.90
41592;DHT22;28026;48.562;14.440;2024-03-25T06:07:58;2.10;99.90
41592;DHT22;28026;48.562;14.440;2024-03-25T06:10:29;2.10;99.90
41592;DHT22;28026;48.562;14.440;2024-03-25T06:12:59;2.10;99.90
41592;DHT22;28026;48.562;14.440;2024-03-25T06:15:30;2.20;99.90
41592;DHT22;28026;48.562;14.440;2024-03-25T06:18:01;2.20;99.90
41592;DHT22;28026;48.562;14.440;2024-03-25T06:20:32;2.20;99.90
41592;DHT22;28026;48.562;14.440;2024-03-25T06:23:03;2.30;99.90
41592;DHT22;28026;48.562;14.440;2024-03-25T06:25:34;2.20;99.90
41592;DHT22;28026;48.562;14.440;2024-03-25T06:28:07;2.20;99.90
41592;DHT22;28026;48.562;14.440;2024-03-25T06:30:39;2.30;99.90
41592;DHT22;28026;48.562;14.440;2024-03-25T06:33:28;2.20;99.90
41592;DHT22;28026;48.562;14.440;2024-03-25T06:36:17;2.30;99.90
41592;DHT22;28026;48.562;14.440;2024-03-25T06:38:49;2.20;99.90
41592;DHT22;28026;48.562;14.440;2024-03-25T06:41:20;2.30;99.90
41592;DHT22;28026;48.562;14.440;2024-03-25T06:43:51;2.30;99.90
41592;DHT22;28026;48.562;14.440;2024-03-25T06:46:22;2.30;99.90
41592;DHT22;28026;48.562;14.440;2024-03-25T06:48:53;2.30;99.90
41592;DHT22;28026;48.562;14.440;2024-03-25T06:51:24;2.40;99.90
41592;DHT22;28026;48.562;14.440;2024-03-25T06:53:55;2.40;99.90
41592;DHT22;28026;48.562;14.440;2024-03-25T06:56:25;2.50;99.90
41592;DHT22;28026;48.562;14.440;2024-03-25T06:58:56;2.50;99.90
41592;DHT22;28026;48.562;14.440;2024-03-25T07:01:27;2.40;99.90
41592;DHT22;28026;48.562;14.440;2024-03-25T07:03:58;2.50;99.90
41592;DHT22;28026;48.562;14.440;2024-03-25T07:06:29;2.50;99.90
41592;DHT22;28026;48.562;14.440;2024-03-25T07:09:00;2.40;99.90
41592;DHT22;28026;48.562;14.440;2024-03-25T07:11:31;2.30;99.90
41592;DHT22;28026;48.562;14.440;2024-03-25T07:14:02;2.20;99.90
41592;DHT22;28026;48.562;14.440;2024-03-25T07:16:33;2.10;99.90
41592;DHT22;28026;48.562;14.440;2024-03-25T07:19:04;2.20;99.90
41592;DHT22;28026;48.562;14.440;2024-03-25T07:21:36;2.20;99.90
41592;DHT22;28026;48.562;14.440;2024-03-25T07:24:06;2.30;99.90
41592;DHT22;28026;48.562;14.440;2024-03-25T07:26:37;2.10;99.90
41592;DHT22;28026;48.562;14.440;2024-03-25T07:29:08;2.10;99.90
41592;DHT22;28026;48.562;14.440;2024-03-25T07:31:40;2.10;99.90
41592;DHT22;28026;48.562;14.440;2024-03-25T07:34:11;2.00;99.90
41592;DHT22;28026;48.562;14.440;2024-03-25T07:36:42;1.90;99.90
41592;DHT22;28026;48.562;14.440;2024-03-25T07:39:13;1.80;99.90
41592;DHT22;28026;48.562;14.440;2024-03-25T07:41:44;1.90;99.90
41592;DHT22;28026;48.562;14.440;2024-03-25T07:44:15;1.90;99.90
41592;DHT22;28026;48.562;14.440;2024-03-25T07:46:46;2.00;99.90
41592;DHT22;28026;48.562;14.440;2024-03-25T07:49:17;2.10;99.90
41592;DHT22;28026;48.562;14.440;2024-03-25T07:51:48;2.20;99.90
41592;DHT22;28026;48.562;14.440;2024-03-25T07:54:18;2.30;99.90
41592;DHT22;28026;48.562;14.440;2024-03-25T07:56:50;2.40;99.90
41592;DHT22;28026;48.562;14.440;2024-03-25T07:59:21;2.50;99.90
41592;DHT22;28026;48.562;14.440;2024-03-25T08:01:51;2.60;99.90
41592;DHT22;28026;48.562;14.440;2024-03-25T08:04:22;2.60;99.90
41592;DHT22;28026;48.562;14.440;2024-03-25T08:06:53;2.80;99.90
41592;DHT22;28026;48.562;14.440;2024-03-25T08:09:24;2.80;99.90
41592;DHT22;28026;48.562;14.440;2024-03-25T08:11:55;2.70;99.90
41592;DHT22;28026;48.562;14.440;2024-03-25T08:14:26;2.70;99.90
41592;DHT22;28026;48.562;14.440;2024-03-25T08:16:57;2.70;99.90
41592;DHT22;28026;48.562;14.440;2024-03-25T08:19:27;2.80;99.90
41592;DHT22;28026;48.562;14.440;2024-03-25T08:21:58;2.90;99.90
41592;DHT22;28026;48.562;14.440;2024-03-25T08:24:29;2.90;99.90
41592;DHT22;28026;48.562;14.440;2024-03-25T08:27:00;2.90;99.90
41592;DHT22;28026;48.562;14.440;2024-03-25T08:29:31;3.00;99.90
41592;DHT22;28026;48.562;14.440;2024-03-25T08:32:01;3.00;99.90
41592;DHT22;28026;48.562;14.440;2024-03-25T08:34:32;3.10;99.90
41592;DHT22;28026;48.562;14.440;2024-03-25T08:37:03;3.20;99.90
41592;DHT22;28026;48.562;14.440;2024-03-25T08:39:34;3.20;99.90
41592;DHT22;28026;48.562;14.440;2024-03-25T08:42:05;3.30;99.90
41592;DHT22;28026;48.562;14.440;2024-03-25T08:44:36;3.50;99.90
41592;DHT22;28026;48.562;14.440;2024-03-25T08:47:07;3.70;99.90
41592;DHT22;28026;48.562;14.440;2024-03-25T08:49:37;3.80;99.90
41592;DHT22;28026;48.562;14.440;2024-03-25T08:52:08;3.90;99.90
41592;DHT22;28026;48.562;14.440;2024-03-25T08:54:39;4.00;99.90
41592;DHT22;28026;48.562;14.440;2024-03-25T08:57:10;4.10;99.90
41592;DHT22;28026;48.562;14.440;2024-03-25T08:59:41;4.00;99.90
41592;DHT22;28026;48.562;14.440;2024-03-25T09:02:11;4.20;99.90
41592;DHT22;28026;48.562;14.440;2024-03-25T09:04:42;4.50;99.90
41592;DHT22;28026;48.562;14.440;2024-03-25T09:07:14;5.10;99.90
41592;DHT22;28026;48.562;14.440;2024-03-25T09:09:45;5.40;99.90
41592;DHT22;28026;48.562;14.440;2024-03-25T09:12:34;5.30;99.90
41592;DHT22;28026;48.562;14.440;2024-03-25T09:15:05;5.70;99.90
41592;DHT22;28026;48.562;14.440;2024-03-25T09:17:36;5.40;99.90
41592;DHT22;28026;48.562;14.440;2024-03-25T09:20:07;5.40;99.90
41592;DHT22;28026;48.562;14.440;2024-03-25T09:22:47;5.90;99.90
41592;DHT22;28026;48.562;14.440;2024-03-25T09:25:18;6.70;99.90
41592;DHT22;28026;48.562;14.440;2024-03-25T09:27:50;7.10;99.90
41592;DHT22;28026;48.562;14.440;2024-03-25T09:30:21;7.40;99.90
41592;DHT22;28026;48.562;14.440;2024-03-25T09:32:53;6.60;99.90
41592;DHT22;28026;48.562;14.440;2024-03-25T09:35:24;6.40;99.90
41592;DHT22;28026;48.562;14.440;2024-03-25T09:37:55;6.00;99.90
41592;DHT22;28026;48.562;14.440;2024-03-25T09:40:26;5.70;99.90
41592;DHT22;28026;48.562;14.440;2024-03-25T09:42:56;5.50;99.90
41592;DHT22;28026;48.562;14.440;2024-03-25T09:45:29;5.30;99.90
41592;DHT22;28026;48.562;14.440;2024-03-25T09:48:00;5.30;99.90
41592;DHT22;28026;48.562;14.440;2024-03-25T09:50:35;5.80;99.90
41592;DHT22;28026;48.562;14.440;2024-03-25T09:53:08;5.20;99.90
41592;DHT22;28026;48.562;14.440;2024-03-25T09:55:39;5.30;99.90
41592;DHT22;28026;48.562;14.440;2024-03-25T09:58:10;5.30;99.90
41592;DHT22;28026;48.562;14.440;2024-03-25T10:00:41;5.00;99.90
41592;DHT22;28026;48.562;14.440;2024-03-25T10:03:12;5.50;99.90
41592;DHT22;28026;48.562;14.440;2024-03-25T10:05:44;5.90;99.90
41592;DHT22;28026;48.562;14.440;2024-03-25T10:08:19;5.90;99.90
41592;DHT22;28026;48.562;14.440;2024-03-25T10:10:52;6.00;99.90
41592;DHT22;28026;48.562;14.440;2024-03-25T10:13:26;6.00;99.90
41592;DHT22;28026;48.562;14.440;2024-03-25T10:15:57;5.30;99.90
41592;DHT22;28026;48.562;14.440;2024-03-25T10:18:28;5.20;99.90
41592;DHT22;28026;48.562;14.440;2024-03-25T10:20:59;5.20;99.90
41592;DHT22;28026;48.562;14.440;2024-03-25T10:23:30;5.20;99.90
41592;DHT22;28026;48.562;14.440;2024-03-25T10:26:02;5.40;99.90
41592;DHT22;28026;48.562;14.440;2024-03-25T10:28:33;5.50;99.90
41592;DHT22;28026;48.562;14.440;2024-03-25T10:31:05;5.50;99.90
41592;DHT22;28026;48.562;14.440;2024-03-25T10:33:36;5.30;99.90
41592;DHT22;28026;48.562;14.440;2024-03-25T10:36:07;5.10;99.90
41592;DHT22;28026;48.562;14.440;2024-03-25T10:38:40;5.00;99.90
41592;DHT22;28026;48.562;14.440;2024-03-25T10:41:12;5.10;99.90
41592;DHT22;28026;48.562;14.440;2024-03-25T10:43:47;5.00;99.90
41592;DHT22;28026;48.562;14.440;2024-03-25T10:46:20;4.70;99.90
41592;DHT22;28026;48.562;14.440;2024-03-25T10:49:03;4.90;99.90
41592;DHT22;28026;48.562;14.440;2024-03-25T10:52:19;4.90;99.90
41592;DHT22;28026;48.562;14.440;2024-03-25T10:54:52;4.80;99.90
41592;DHT22;28026;48.562;14.440;2024-03-25T10:57:27;5.00;99.90
41592;DHT22;28026;48.562;14.440;2024-03-25T10:59:59;5.80;99.90
41592;DHT22;28026;48.562;14.440;2024-03-25T11:02:34;6.20;99.90
41592;DHT22;28026;48.562;14.440;2024-03-25T11:05:05;6.30;99.90
41592;DHT22;28026;48.562;14.440;2024-03-25T11:07:37;6.50;99.90
41592;DHT22;28026;48.562;14.440;2024-03-25T11:10:11;5.80;99.90
41592;DHT22;28026;48.562;14.440;2024-03-25T11:12:42;5.80;99.90
41592;DHT22;28026;48.562;14.440;2024-03-25T11:15:13;5.70;99.90
41592;DHT22;28026;48.562;14.440;2024-03-25T11:17:48;6.20;99.90
41592;DHT22;28026;48.562;14.440;2024-03-25T11:20:19;6.40;99.90
41592;DHT22;28026;48.562;14.440;2024-03-25T11:22:51;5.80;99.90
41592;DHT22;28026;48.562;14.440;2024-03-25T11:25:23;5.60;99.90
41592;DHT22;28026;48.562;14.440;2024-03-25T11:27:54;5.40;99.90
41592;DHT22;28026;48.562;14.440;2024-03-25T11:30:24;5.30;99.90
41592;DHT22;28026;48.562;14.440;2024-03-25T11:32:57;5.70;99.90
41592;DHT22;28026;48.562;14.440;2024-03-25T11:35:37;6.00;99.90
41592;DHT22;28026;48.562;14.440;2024-03-25T11:38:09;6.60;99.90
41592;DHT22;28026;48.562;14.440;2024-03-25T11:40:41;7.10;99.90
41592;DHT22;28026;48.562;14.440;2024-03-25T11:43:17;7.10;99.90
41592;DHT22;28026;48.562;14.440;2024-03-25T11:45:49;6.80;99.90
41592;DHT22;28026;48.562;14.440;2024-03-25T11:48:20;7.70;99.90
41592;DHT22;28026;48.562;14.440;2024-03-25T11:50:51;7.80;99.90
41592;DHT22;28026;48.562;14.440;2024-03-25T11:53:22;8.30;99.90
41592;DHT22;28026;48.562;14.440;2024-03-25T11:55:53;8.70;99.90
41592;DHT22;28026;48.562;14.440;2024-03-25T11:58:24;8.20;99.90
41592;DHT22;28026;48.562;14.440;2024-03-25T12:00:55;6.90;99.90
41592;DHT22;28026;48.562;14.440;2024-03-25T12:03:27;6.80;99.90
41592;DHT22;28026;48.562;14.440;2024-03-25T12:05:58;6.90;99.90
41592;DHT22;28026;48.562;14.440;2024-03-25T12:08:29;7.80;99.90
41592;DHT22;28026;48.562;14.440;2024-03-25T12:11:02;8.40;99.90
41592;DHT22;28026;48.562;14.440;2024-03-25T12:13:48;8.00;99.90
41592;DHT22;28026;48.562;14.440;2024-03-25T12:16:19;7.10;99.90
41592;DHT22;28026;48.562;14.440;2024-03-25T12:18:51;7.10;99.90
41592;DHT22;28026;48.562;14.440;2024-03-25T12:21:23;7.20;99.90
41592;DHT22;28026;48.562;14.440;2024-03-25T12:23:54;7.00;99.90
41592;DHT22;28026;48.562;14.440;2024-03-25T12:26:25;7.70;99.90
41592;DHT22;28026;48.562;14.440;2024-03-25T12:28:56;8.10;99.90
41592;DHT22;28026;48.562;14.440;2024-03-25T12:31:28;8.50;99.90
41592;DHT22;28026;48.562;14.440;2024-03-25T12:33:59;7.70;99.90
41592;DHT22;28026;48.562;14.440;2024-03-25T12:36:30;7.50;99.90
41592;DHT22;28026;48.562;14.440;2024-03-25T12:39:04;6.80;99.90
41592;DHT22;28026;48.562;14.440;2024-03-25T12:41:36;6.90;99.90
41592;DHT22;28026;48.562;14.440;2024-03-25T12:44:06;6.90;99.90
41592;DHT22;28026;48.562;14.440;2024-03-25T12:46:38;7.50;99.90
41592;DHT22;28026;48.562;14.440;2024-03-25T12:49:09;8.00;99.90
41592;DHT22;28026;48.562;14.440;2024-03-25T12:51:41;7.60;99.90
41592;DHT22;28026;48.562;14.440;2024-03-25T12:54:12;8.00;99.90
41592;DHT22;28026;48.562;14.440;2024-03-25T12:56:43;8.10;99.90
41592;DHT22;28026;48.562;14.440;2024-03-25T12:59:14;8.80;99.90
41592;DHT22;28026;48.562;14.440;2024-03-25T13:01:45;9.10;99.90
41592;DHT22;28026;48.562;14.440;2024-03-25T13:04:16;9.10;99.90
41592;DHT22;28026;48.562;14.440;2024-03-25T13:06:47;8.10;99.90
41592;DHT22;28026;48.562;14.440;2024-03-25T13:09:18;8.20;99.90
41592;DHT22;28026;48.562;14.440;2024-03-25T13:11:49;8.40;99.90
41592;DHT22;28026;48.562;14.440;2024-03-25T13:14:20;8.40;99.90
41592;DHT22;28026;48.562;14.440;2024-03-25T13:16:51;8.00;99.90
41592;DHT22;28026;48.562;14.440;2024-03-25T13:19:22;7.90;99.90
41592;DHT22;28026;48.562;14.440;2024-03-25T13:21:53;7.60;99.90
41592;DHT22;28026;48.562;14.440;2024-03-25T13:24:25;7.50;99.90
41592;DHT22;28026;48.562;14.440;2024-03-25T13:26:56;8.10;99.90
41592;DHT22;28026;48.562;14.440;2024-03-25T13:29:27;8.00;99.90
41592;DHT22;28026;48.562;14.440;2024-03-25T13:31:59;7.80;99.90
41592;DHT22;28026;48.562;14.440;2024-03-25T13:34:30;7.60;99.90
41592;DHT22;28026;48.562;14.440;2024-03-25T13:37:02;7.10;99.90
41592;DHT22;28026;48.562;14.440;2024-03-25T13:39:32;7.40;99.90
41592;DHT22;28026;48.562;14.440;2024-03-25T13:44:37;7.20;99.90
41592;DHT22;28026;48.562;14.440;2024-03-25T13:47:08;7.40;99.90
41592;DHT22;28026;48.562;14.440;2024-03-25T13:49:39;8.10;99.90
41592;DHT22;28026;48.562;14.440;2024-03-25T13:52:10;8.30;99.90
41592;DHT22;28026;48.562;14.440;2024-03-25T13:54:41;9.00;99.90
41592;DHT22;28026;48.562;14.440;2024-03-25T13:57:13;8.60;99.90
41592;DHT22;28026;48.562;14.440;2024-03-25T13:59:44;9.20;99.90
41592;DHT22;28026;48.562;14.440;2024-03-25T14:02:15;8.60;99.90
41592;DHT22;28026;48.562;14.440;2024-03-25T14:04:46;8.20;99.90
41592;DHT22;28026;48.562;14.440;2024-03-25T14:07:17;8.30;99.90
41592;DHT22;28026;48.562;14.440;2024-03-25T14:09:48;8.60;99.90
41592;DHT22;28026;48.562;14.440;2024-03-25T14:12:18;8.30;99.90
41592;DHT22;28026;48.562;14.440;2024-03-25T14:14:49;8.10;99.90
41592;DHT22;28026;48.562;14.440;2024-03-25T14:17:20;7.70;99.90
41592;DHT22;28026;48.562;14.440;2024-03-25T14:19:53;8.20;99.90
41592;DHT22;28026;48.562;14.440;2024-03-25T14:22:25;9.10;99.90
41592;DHT22;28026;48.562;14.440;2024-03-25T14:24:56;9.10;99.90
41592;DHT22;28026;48.562;14.440;2024-03-25T14:27:28;8.60;99.90
41592;DHT22;28026;48.562;14.440;2024-03-25T14:29:58;8.40;99.90
41592;DHT22;28026;48.562;14.440;2024-03-25T14:32:29;8.60;99.90
41592;DHT22;28026;48.562;14.440;2024-03-25T14:35:00;8.50;99.90
41592;DHT22;28026;48.562;14.440;2024-03-25T14:37:32;8.40;99.90
41592;DHT22;28026;48.562;14.440;2024-03-25T14:40:03;8.50;99.90
41592;DHT22;28026;48.562;14.440;2024-03-25T14:42:35;8.40;99.90
41592;DHT22;28026;48.562;14.440;2024-03-25T14:45:07;8.60;99.90
41592;DHT22;28026;48.562;14.440;2024-03-25T14:47:38;8.20;99.90
41592;DHT22;28026;48.562;14.440;2024-03-25T14:50:09;8.90;99.90
41592;DHT22;28026;48.562;14.440;2024-03-25T14:52:40;9.00;99.90
41592;DHT22;28026;48.562;14.440;2024-03-25T14:55:11;9.20;99.90
41592;DHT22;28026;48.562;14.440;2024-03-25T14:57:41;8.80;99.90
41592;DHT22;28026;48.562;14.440;2024-03-25T15:00:13;8.60;99.90
41592;DHT22;28026;48.562;14.440;2024-03-25T15:02:44;10.00;99.90
41592;DHT22;28026;48.562;14.440;2024-03-25T15:05:15;9.50;99.90
41592;DHT22;28026;48.562;14.440;2024-03-25T15:07:46;9.00;99.90
41592;DHT22;28026;48.562;14.440;2024-03-25T15:10:17;8.80;99.90
41592;DHT22;28026;48.562;14.440;2024-03-25T15:12:48;8.70;99.90
41592;DHT22;28026;48.562;14.440;2024-03-25T15:15:19;8.50;99.90
41592;DHT22;28026;48.562;14.440;2024-03-25T15:17:50;8.80;99.90
41592;DHT22;28026;48.562;14.440;2024-03-25T15:20:21;8.60;99.90
41592;DHT22;28026;48.562;14.440;2024-03-25T15:22:51;8.50;99.90
41592;DHT22;28026;48.562;14.440;2024-03-25T15:25:22;8.30;99.90
41592;DHT22;28026;48.562;14.440;2024-03-25T15:27:53;8.20;99.90
41592;DHT22;28026;48.562;14.440;2024-03-25T15:30:24;8.30;99.90
41592;DHT22;28026;48.562;14.440;2024-03-25T15:32:55;8.90;99.90
41592;DHT22;28026;48.562;14.440;2024-03-25T15:35:25;9.50;99.90
41592;DHT22;28026;48.562;14.440;2024-03-25T15:37:56;9.10;99.90
41592;DHT22;28026;48.562;14.440;2024-03-25T15:40:28;8.60;99.90
41592;DHT22;28026;48.562;14.440;2024-03-25T15:43:00;8.50;99.90
41592;DHT22;28026;48.562;14.440;2024-03-25T15:45:31;8.50;99.90
41592;DHT22;28026;48.562;14.440;2024-03-25T15:48:02;8.50;99.90
41592;DHT22;28026;48.562;14.440;2024-03-25T15:50:35;8.40;99.90
41592;DHT22;28026;48.562;14.440;2024-03-25T15:53:06;8.40;99.90
41592;DHT22;28026;48.562;14.440;2024-03-25T15:55:37;9.00;99.90
41592;DHT22;28026;48.562;14.440;2024-03-25T15:58:11;9.50;99.90
41592;DHT22;28026;48.562;14.440;2024-03-25T16:00:42;9.50;99.90